Hostname: pi-star
Pi-Star:3.4.17 / Dashboard: 20191220

Pi-Star Digital Voice Dashboard for MW0MWZ

Dashboard | Admin | Configuration



DAPNET Gateway Activity
Time (GMT)Time in GMT time zone Time SlotMessage Mode TargetRIC / CapCode of the receiving Pager MessageMessage contents
00:26:01 Jan 26th Slot 8 0002504 [Skyper OTA Time] 002600 260120
00:22:11 Jan 26th Slot 4 0002504 [Skyper OTA Time] 002200 260120
00:21:20 Jan 26th Slot 12 0351172 M0GLJ: EDFH 252350Z 15010KT 0300 R21/0500N FZFG VV/// M02/M02 Q1018
00:21:20 Jan 26th Slot 12 0351172 M0GLJ: LBBG 260000Z 24008KT CAVOK 02/M00 Q1023 NOSIG
00:21:20 Jan 26th Slot 12 0351172 M0GLJ: LCPH 260000Z 03008KT 9999 SCT030 08/04 Q1029
00:21:20 Jan 26th Slot 12 0351172 M0GLJ: GCLP 260000Z 34008KT 9999 FEW035 17/09 Q1025 NOSIG
00:21:20 Jan 26th Slot 12 0351172 M0GLJ: EGNX 252350Z 18009KT 9999 BKN007 06/05 Q1012
00:20:03 Jan 26th Slot 0 0000008 mw0mwz
00:20:03 Jan 26th Slot 0 0002504 [Skyper OTA Time] 002000 260120
00:16:12 Jan 26th Slot 12 0002504 [Skyper OTA Time] 001600 260120
00:14:56 Jan 26th Slot 0 0004520 [Skyper Rubric:60 Msg:1] DXCluster bei DB0SDAges:100 KW:71 KWCW:20 4/6m:0 V/UHF:0 SHF:0
00:14:56 Jan 26th Slot 0 0001060 DXCluster bei DB0SDAges:100 KW:71 KWCW:20 4/6m:0 V/UHF:0 SHF:0
00:14:04 Jan 26th Slot 8 0002504 [Skyper OTA Time] 001400 260120
00:12:00 Jan 26th Slot 4 0002504 [Skyper OTA Time] 001200 260120
00:10:14 Jan 26th Slot 4 0000008 mw0mwz
00:10:14 Jan 26th Slot 4 0002504 [Skyper OTA Time] 001000 260120
00:08:06 Jan 26th Slot 0 0002504 [Skyper OTA Time] 000800 260120
00:06:00 Jan 26th Slot 12 0002504 [Skyper OTA Time] 000600 260120
00:02:08 Jan 26th Slot 8 0002504 [Skyper OTA Time] 000200 260120
00:01:42 Jan 26th Slot 4 0004520 [Skyper Rubric:60 Msg:2] DAPNET-Core Stats PrivMsgs:95 News:409Nodes:6/11 TXs:528/1754